createdAt,value
2017-05-24T00:01:04.472Z,99.99
2017-05-24T00:02:16.995Z,99.99
2017-05-24T00:03:28.916Z,99.99
2017-05-24T00:04:40.856Z,99.99
2017-05-24T00:05:53.106Z,99.99
2017-05-24T00:07:05.029Z,99.99
2017-05-24T00:08:17.243Z,99.99
2017-05-24T00:09:29.185Z,99.99
2017-05-24T00:10:41.417Z,99.99
2017-05-24T00:11:53.953Z,99.99
2017-05-24T00:13:06.183Z,99.99
2017-05-24T00:14:18.395Z,99.99
2017-05-24T00:15:30.316Z,99.99
2017-05-24T00:16:42.818Z,99.99
2017-05-24T00:17:55.058Z,99.99
2017-05-24T00:19:07.580Z,99.99
2017-05-24T00:20:19.841Z,99.99
2017-05-24T00:21:32.352Z,99.99
2017-05-24T00:22:44.892Z,99.99
2017-05-24T00:23:57.172Z,99.99
2017-05-24T00:25:09.393Z,99.99
2017-05-24T00:26:21.933Z,99.99
2017-05-24T00:27:34.186Z,99.99
2017-05-24T00:28:46.720Z,99.99
2017-05-24T00:29:58.926Z,99.99
2017-05-24T00:31:10.562Z,99.99
2017-05-24T00:32:23.044Z,99.99
2017-05-24T00:33:35.580Z,99.99
2017-05-24T00:34:48.110Z,99.99
2017-05-24T00:36:00.371Z,99.99
2017-05-24T00:37:12.595Z,99.99
2017-05-24T00:38:24.519Z,99.99
2017-05-24T00:39:36.458Z,99.99
2017-05-24T00:40:48.979Z,99.99
2017-05-24T00:42:01.525Z,99.99
2017-05-24T00:43:14.053Z,99.99
2017-05-24T00:44:26.252Z,99.99
2017-05-24T00:45:38.188Z,99.99
2017-05-24T00:46:50.719Z,99.99
2017-05-24T00:48:02.955Z,99.99
2017-05-24T00:49:14.878Z,99.99
2017-05-24T00:50:27.103Z,99.99
2017-05-24T00:51:39.325Z,99.99
2017-05-24T00:52:51.843Z,99.99
2017-05-24T00:54:04.392Z,99.99
2017-05-24T00:55:16.338Z,99.99
2017-05-24T00:56:28.286Z,99.99
2017-05-24T00:57:40.834Z,99.99
2017-05-24T00:58:53.106Z,99.99
2017-05-24T01:00:05.638Z,99.99
2017-05-24T01:01:17.565Z,99.99
2017-05-24T01:02:29.813Z,99.99
2017-05-24T01:03:42.056Z,99.99
2017-05-24T01:04:54.605Z,99.99
2017-05-24T01:06:06.818Z,99.99
2017-05-24T01:07:19.022Z,99.99
2017-05-24T01:08:30.939Z,99.99
2017-05-24T01:09:43.489Z,99.99
2017-05-24T01:10:55.436Z,99.99
2017-05-24T01:12:07.077Z,99.99
2017-05-24T01:13:19.302Z,99.99
2017-05-24T01:14:31.826Z,99.99
2017-05-24T01:15:44.365Z,99.99
2017-05-24T01:16:56.300Z,99.99
2017-05-24T01:18:08.536Z,99.99
2017-05-24T01:19:21.084Z,99.99
2017-05-24T01:20:33.631Z,99.99
2017-05-24T01:21:45.594Z,99.99
2017-05-24T01:22:57.817Z,99.99
2017-05-24T01:24:09.765Z,99.99
2017-05-24T01:25:22.315Z,99.99
2017-05-24T01:26:34.578Z,99.99
2017-05-24T01:27:46.524Z,99.99
2017-05-24T01:28:59.077Z,99.99
2017-05-24T01:30:11.019Z,99.99
2017-05-24T01:31:23.265Z,99.99
2017-05-24T01:32:35.487Z,99.99
2017-05-24T01:33:47.400Z,99.99
2017-05-24T01:34:59.629Z,99.99
2017-05-24T01:36:11.869Z,99.99
2017-05-24T01:37:24.114Z,99.99
2017-05-24T01:38:36.362Z,99.99
2017-05-24T01:39:48.886Z,99.99
2017-05-24T01:41:01.128Z,99.99
2017-05-24T01:42:13.679Z,99.99
2017-05-24T01:43:25.892Z,99.99
2017-05-24T01:44:37.822Z,99.99
2017-05-24T01:45:49.434Z,99.99
2017-05-24T01:47:01.630Z,99.99
2017-05-24T01:48:13.834Z,99.99
2017-05-24T01:49:26.099Z,99.99
2017-05-24T01:50:38.653Z,99.99
2017-05-24T01:51:50.896Z,99.99
2017-05-24T01:53:03.442Z,99.99
2017-05-24T01:54:15.684Z,99.99
2017-05-24T01:55:28.217Z,99.99
2017-05-24T01:56:40.422Z,99.99
2017-05-24T01:57:52.620Z,99.99
2017-05-24T01:59:05.451Z,99.99
2017-05-24T02:00:17.972Z,99.99
2017-05-24T02:01:30.189Z,99.99
2017-05-24T02:02:42.403Z,99.99
2017-05-24T02:03:54.923Z,99.99
2017-05-24T02:05:07.449Z,99.99
2017-05-24T02:06:19.668Z,99.99
2017-05-24T02:07:31.614Z,99.99
2017-05-24T02:08:43.856Z,99.99
2017-05-24T02:09:56.032Z,99.99
2017-05-24T02:11:08.573Z,99.99
2017-05-24T02:12:20.772Z,99.99
2017-05-24T02:13:33.325Z,99.99
2017-05-24T02:14:45.573Z,99.99
2017-05-24T02:15:57.835Z,99.99
2017-05-24T02:17:10.052Z,99.99
2017-05-24T02:18:22.557Z,99.99
2017-05-24T02:19:34.794Z,99.99
2017-05-24T02:20:47.548Z,99.99
2017-05-24T02:22:00.066Z,99.99
2017-05-24T02:23:12.607Z,99.99
2017-05-24T02:24:24.857Z,99.99
2017-05-24T02:25:37.424Z,99.99
2017-05-24T02:26:49.649Z,99.99
2017-05-24T02:28:02.198Z,99.99
2017-05-24T02:29:14.421Z,99.99
2017-05-24T02:30:26.957Z,99.99
2017-05-24T02:31:38.890Z,99.99
2017-05-24T02:32:51.125Z,99.99
2017-05-24T02:34:03.385Z,99.99
2017-05-24T02:35:15.620Z,99.99
2017-05-24T02:36:28.170Z,99.99
2017-05-24T02:37:40.408Z,99.99
2017-05-24T02:38:52.639Z,99.99
2017-05-24T02:40:04.876Z,99.99
2017-05-24T02:41:17.085Z,99.99
2017-05-24T02:42:29.320Z,99.99
2017-05-24T02:43:41.563Z,99.99
2017-05-24T02:44:53.192Z,99.99
2017-05-24T02:46:05.437Z,99.99
2017-05-24T02:47:17.977Z,99.99
2017-05-24T02:48:30.556Z,99.99
2017-05-24T02:49:42.799Z,99.99
2017-05-24T02:50:54.715Z,99.99
2017-05-24T02:52:06.638Z,99.99
2017-05-24T02:53:19.437Z,99.99
2017-05-24T02:54:31.634Z,99.99
2017-05-24T02:55:43.633Z,99.99
2017-05-24T02:56:56.171Z,99.99
2017-05-24T02:58:08.400Z,99.99
2017-05-24T02:59:20.946Z,99.99
2017-05-24T03:00:32.856Z,99.99
2017-05-24T03:01:45.352Z,99.99
2017-05-24T03:02:57.557Z,99.99
2017-05-24T03:04:10.103Z,99.99
2017-05-24T03:05:22.340Z,99.99
2017-05-24T03:06:34.261Z,99.99
2017-05-24T03:07:46.460Z,99.99
2017-05-24T03:08:58.414Z,99.99
2017-05-24T03:10:10.323Z,99.99
2017-05-24T03:11:22.845Z,99.99
2017-05-24T03:12:35.366Z,99.99
2017-05-24T03:13:47.885Z,99.99
2017-05-24T03:15:00.419Z,99.99
2017-05-24T03:16:12.359Z,99.99
2017-05-24T03:17:24.910Z,99.99
2017-05-24T03:18:37.480Z,99.99
2017-05-24T03:19:49.720Z,99.99
2017-05-24T03:21:02.261Z,99.99
2017-05-24T03:22:14.512Z,99.99
2017-05-24T03:23:26.457Z,99.99
2017-05-24T03:24:38.975Z,99.99
2017-05-24T03:25:51.196Z,99.99
2017-05-24T03:27:03.717Z,99.99
2017-05-24T03:28:15.646Z,99.99
2017-05-24T03:29:28.167Z,99.99
2017-05-24T03:30:40.112Z,99.99
2017-05-24T03:31:52.658Z,99.99
2017-05-24T03:33:05.208Z,99.99
2017-05-24T03:34:17.449Z,99.99
2017-05-24T03:35:30.000Z,99.99
2017-05-24T03:36:42.536Z,99.99
2017-05-24T03:37:54.779Z,99.99
2017-05-24T03:39:07.328Z,99.99
2017-05-24T03:40:19.573Z,99.99
2017-05-24T03:41:31.829Z,99.99
2017-05-24T03:42:44.366Z,99.99
2017-05-24T03:43:56.913Z,99.99
2017-05-24T03:45:09.468Z,99.99
2017-05-24T03:46:21.700Z,99.99
2017-05-24T03:47:33.909Z,99.99
2017-05-24T03:48:45.842Z,99.99
2017-05-24T03:49:57.775Z,99.99
2017-05-24T03:51:10.010Z,99.99
2017-05-24T03:52:22.534Z,99.99
2017-05-24T03:53:35.089Z,99.99
2017-05-24T03:54:47.336Z,99.99
2017-05-24T03:55:59.867Z,99.99
2017-05-24T03:57:12.122Z,99.99
2017-05-24T03:58:24.660Z,99.99
2017-05-24T03:59:36.860Z,99.99
2017-05-24T04:00:49.401Z,99.99
2017-05-24T04:02:01.037Z,99.99
2017-05-24T04:03:13.576Z,99.99
2017-05-24T04:04:26.097Z,99.99
2017-05-24T04:05:38.018Z,99.99
2017-05-24T04:06:50.559Z,99.99
2017-05-24T04:08:03.110Z,99.99
2017-05-24T04:09:15.651Z,99.99
2017-05-24T04:10:28.204Z,99.99
2017-05-24T04:11:40.144Z,99.99
2017-05-24T04:12:52.389Z,99.99
2017-05-24T04:14:04.640Z,99.99
2017-05-24T04:15:17.179Z,99.99
2017-05-24T04:16:29.712Z,99.99
2017-05-24T04:17:41.973Z,99.99
2017-05-24T04:18:54.223Z,99.99
2017-05-24T04:20:06.747Z,99.99
2017-05-24T04:21:19.315Z,99.99
2017-05-24T04:22:31.577Z,99.99
2017-05-24T04:23:43.783Z,99.65
2017-05-24T04:24:56.006Z,99.65
2017-05-24T04:26:07.949Z,99.55
2017-05-24T04:27:20.494Z,99.75
2017-05-24T04:28:32.437Z,99.99
2017-05-24T04:29:44.980Z,99.99
2017-05-24T04:30:57.528Z,99.94
2017-05-24T04:32:09.774Z,99.94
2017-05-24T04:33:21.720Z,99.84
2017-05-24T04:34:34.273Z,99.99
2017-05-24T04:35:46.496Z,99.46
2017-05-24T04:36:59.031Z,99.99
2017-05-24T04:38:11.276Z,99.75
2017-05-24T04:39:23.808Z,99.37
2017-05-24T04:40:36.367Z,99.99
2017-05-24T04:41:49.178Z,98.99
2017-05-24T04:43:01.111Z,99.37
2017-05-24T04:44:13.634Z,99.99
2017-05-24T04:45:25.908Z,98.79
2017-05-24T04:46:38.157Z,98.94
2017-05-24T04:47:49.803Z,98.99
2017-05-24T04:49:02.341Z,98.85
2017-05-24T04:50:14.883Z,99.04
2017-05-24T04:51:26.788Z,99.13
2017-05-24T04:52:39.014Z,98.85
2017-05-24T04:53:50.923Z,99.13
2017-05-24T04:55:03.451Z,98.75
2017-05-24T04:56:15.999Z,99.04
2017-05-24T04:57:28.568Z,98.36
2017-05-24T04:58:41.110Z,99.32
2017-05-24T04:59:53.355Z,98.94
2017-05-24T05:01:05.602Z,98.94
2017-05-24T05:02:17.822Z,99.13
2017-05-24T05:03:30.347Z,98.94
2017-05-24T05:04:42.272Z,99.04
2017-05-24T05:05:54.509Z,99.6
2017-05-24T05:07:06.752Z,98.75
2017-05-24T05:08:19.273Z,99.13
2017-05-24T05:09:31.482Z,98.65
2017-05-24T05:10:43.423Z,98.94
2017-05-24T05:11:55.971Z,98.75
2017-05-24T05:13:08.490Z,99.22
2017-05-24T05:14:20.727Z,99.41
2017-05-24T05:15:32.956Z,98.75
2017-05-24T05:16:45.194Z,99.22
2017-05-24T05:17:57.741Z,99.41
2017-05-24T05:19:10.271Z,99.6
2017-05-24T05:20:22.213Z,99.7
2017-05-24T05:21:34.761Z,98.56
2017-05-24T05:22:47.000Z,98.56
2017-05-24T05:23:59.531Z,99.22
2017-05-24T05:25:11.741Z,98.18
2017-05-24T05:26:24.237Z,98.94
2017-05-24T05:27:36.460Z,98.36
2017-05-24T05:28:48.729Z,97.7
2017-05-24T05:30:00.961Z,98.08
2017-05-24T05:31:13.506Z,98.61
2017-05-24T05:32:25.124Z,98.13
2017-05-24T05:33:37.662Z,98.51
2017-05-24T05:34:49.862Z,98.9
2017-05-24T05:36:02.391Z,99.08
2017-05-24T05:37:14.626Z,97.94
2017-05-24T05:38:26.821Z,97.85
2017-05-24T05:39:39.053Z,96.94
2017-05-24T05:40:51.625Z,96.8
2017-05-24T05:42:04.162Z,97.89
2017-05-24T05:43:16.705Z,97.51
2017-05-24T05:44:28.938Z,97.8
2017-05-24T05:45:41.171Z,98.08
2017-05-24T05:46:53.725Z,98.08
2017-05-24T05:48:06.263Z,98.51
2017-05-24T05:49:18.495Z,98.13
2017-05-24T05:50:31.004Z,97.89
2017-05-24T05:51:42.937Z,98.08
2017-05-24T05:52:55.176Z,97.89
2017-05-24T05:54:07.728Z,98.7
2017-05-24T05:55:19.963Z,98.7
2017-05-24T05:56:31.589Z,98.61
2017-05-24T05:57:44.141Z,98.61
2017-05-24T05:58:56.352Z,98.42
2017-05-24T06:00:08.858Z,97.27
2017-05-24T06:01:21.400Z,97.85
2017-05-24T06:02:33.950Z,98.03
2017-05-24T06:03:46.463Z,97.46
2017-05-24T06:04:58.717Z,97.27
2017-05-24T06:06:11.289Z,96.98
2017-05-24T06:07:23.859Z,97.75
2017-05-24T06:08:36.099Z,97.75
2017-05-24T06:09:48.057Z,97.56
2017-05-24T06:11:00.628Z,97.94
2017-05-24T06:12:12.910Z,98.32
2017-05-24T06:13:25.128Z,98.7
2017-05-24T06:14:37.681Z,97.94
2017-05-24T06:15:49.903Z,97.66
2017-05-24T06:17:01.544Z,97.56
2017-05-24T06:18:14.087Z,97.46
2017-05-24T06:19:26.614Z,97.46
2017-05-24T06:20:38.907Z,97.94
2017-05-24T06:21:51.437Z,96.98
2017-05-24T06:23:03.678Z,96.22
2017-05-24T06:24:16.223Z,97.46
2017-05-24T06:25:28.471Z,97.56
2017-05-24T06:26:41.007Z,95.84
2017-05-24T06:27:53.556Z,97.27
2017-05-24T06:29:05.784Z,96.03
2017-05-24T06:30:18.325Z,97.27
2017-05-24T06:31:30.874Z,96.98
2017-05-24T06:32:43.116Z,97.08
2017-05-24T06:33:55.362Z,97.37
2017-05-24T06:35:07.886Z,97.56
2017-05-24T06:36:20.128Z,97.85
2017-05-24T06:37:32.371Z,96.7
2017-05-24T06:38:44.876Z,96.13
2017-05-24T06:39:57.122Z,97.08
2017-05-24T06:41:09.287Z,97.94
2017-05-24T06:42:21.590Z,96.8
2017-05-24T06:43:33.879Z,95.84
2017-05-24T06:44:46.425Z,95.84
2017-05-24T06:45:58.668Z,96.22
2017-05-24T06:47:11.214Z,96.51
2017-05-24T06:48:23.761Z,97.27
2017-05-24T06:49:36.284Z,96.51
2017-05-24T06:50:48.226Z,96.98
2017-05-24T06:52:00.751Z,97.17
2017-05-24T06:53:13.001Z,96.7
2017-05-24T06:54:25.538Z,97.37
2017-05-24T06:55:37.760Z,96.61
2017-05-24T06:56:50.266Z,95.46
2017-05-24T06:58:02.804Z,95.84
2017-05-24T06:59:15.334Z,95.08
2017-05-24T07:00:27.894Z,95.65
2017-05-24T07:01:40.439Z,96.22
2017-05-24T07:02:52.365Z,97.27
2017-05-24T07:04:04.607Z,94.84
2017-05-24T07:05:17.135Z,95.51
2017-05-24T07:06:29.060Z,95.98
2017-05-24T07:07:40.972Z,94.89
2017-05-24T07:08:52.897Z,95.22
2017-05-24T07:10:05.460Z,95.98
2017-05-24T07:11:17.985Z,94.46
2017-05-24T07:12:30.527Z,95.32
2017-05-24T07:13:42.756Z,94.46
2017-05-24T07:14:55.304Z,95.12
2017-05-24T07:16:07.551Z,94.98
2017-05-24T07:17:19.865Z,94.41
2017-05-24T07:18:32.094Z,93.17
2017-05-24T07:19:44.635Z,93.84
2017-05-24T07:20:56.857Z,94.31
2017-05-24T07:22:09.081Z,93.26
2017-05-24T07:23:21.623Z,92.21
2017-05-24T07:24:33.848Z,92.83
2017-05-24T07:25:46.365Z,92.26
2017-05-24T07:26:58.610Z,92.26
2017-05-24T07:28:11.127Z,93.79
2017-05-24T07:29:23.378Z,92.36
2017-05-24T07:30:35.644Z,92.36
2017-05-24T07:31:48.198Z,92.45
2017-05-24T07:33:00.719Z,92.21
2017-05-24T07:34:12.654Z,91.35
2017-05-24T07:35:25.190Z,91.35
2017-05-24T07:36:37.753Z,91.45
2017-05-24T07:37:50.295Z,92.79
2017-05-24T07:39:02.865Z,92.3
2017-05-24T07:40:14.494Z,92.59
2017-05-24T07:41:27.054Z,92.79
2017-05-24T07:42:39.586Z,91.64
2017-05-24T07:43:52.172Z,91.68
2017-05-24T07:45:03.821Z,91.97
2017-05-24T07:46:16.067Z,91.11
2017-05-24T07:47:28.588Z,91.39
2017-05-24T07:48:41.138Z,90.44
2017-05-24T07:49:53.703Z,90.63
2017-05-24T07:51:05.051Z,90.06
2017-05-24T07:52:17.317Z,90.34
2017-05-24T07:53:29.916Z,89.77
2017-05-24T07:54:42.175Z,90.34
2017-05-24T07:55:54.113Z,90.82
2017-05-24T07:57:05.725Z,90.82
2017-05-24T07:58:17.976Z,91.39
2017-05-24T07:59:29.903Z,90.53
2017-05-24T08:00:42.122Z,91.2
2017-05-24T08:01:53.764Z,91.02
2017-05-24T08:03:05.684Z,90.92
2017-05-24T08:04:18.264Z,89.96
2017-05-24T08:05:30.809Z,89.48
2017-05-24T08:06:43.053Z,90.53
2017-05-24T08:07:54.968Z,90.63
2017-05-24T08:09:07.211Z,90.82
2017-05-24T08:10:19.541Z,90.16
2017-05-24T08:11:32.113Z,90.25
2017-05-24T08:12:44.363Z,89.58
2017-05-24T08:13:56.594Z,89.58
2017-05-24T08:15:08.827Z,89.29
2017-05-24T08:16:21.086Z,90.44
2017-05-24T08:17:33.343Z,90.34
2017-05-24T08:18:46.188Z,90.06
2017-05-24T08:19:57.536Z,90.25
2017-05-24T08:21:09.470Z,90.25
2017-05-24T08:22:22.026Z,89.48
2017-05-24T08:23:33.994Z,89.58
2017-05-24T08:24:46.533Z,89.34
2017-05-24T08:25:58.782Z,89.67
2017-05-24T08:27:10.409Z,89.34
2017-05-24T08:28:22.931Z,88.86
2017-05-24T08:29:35.173Z,88.09
2017-05-24T08:30:47.115Z,88.15
2017-05-24T08:31:59.034Z,89.15
2017-05-24T08:33:11.565Z,87.81
2017-05-24T08:34:24.075Z,88.09
2017-05-24T08:35:36.607Z,88.67
2017-05-24T08:36:48.841Z,87.9
2017-05-24T08:38:01.388Z,88.19
2017-05-24T08:39:13.623Z,87.62
2017-05-24T08:40:26.155Z,88.29
2017-05-24T08:41:38.402Z,87.62
2017-05-24T08:42:50.335Z,88
2017-05-24T08:44:01.976Z,88.19
2017-05-24T08:45:14.228Z,88.29
2017-05-24T08:46:26.771Z,87.62
2017-05-24T08:47:38.718Z,87.71
2017-05-24T08:48:51.288Z,87.62
2017-05-24T08:50:03.226Z,88
2017-05-24T08:51:15.776Z,87.9
2017-05-24T08:52:28.292Z,88.19
2017-05-24T08:53:40.821Z,87.71
2017-05-24T08:54:53.037Z,88
2017-05-24T08:56:04.685Z,87.81
2017-05-24T08:57:17.205Z,87.71
2017-05-24T08:58:29.418Z,87.62
2017-05-24T08:59:41.665Z,87.62
2017-05-24T09:00:53.897Z,87.52
2017-05-24T09:02:06.114Z,87.71
2017-05-24T09:03:18.638Z,87.81
2017-05-24T09:04:31.176Z,87.23
2017-05-24T09:05:43.706Z,87.14
2017-05-24T09:06:55.977Z,86.76
2017-05-24T09:08:07.912Z,86.47
2017-05-24T09:09:19.832Z,86.47
2017-05-24T09:10:32.072Z,87.04
2017-05-24T09:11:44.628Z,86.85
2017-05-24T09:12:57.177Z,86.85
2017-05-24T09:14:09.423Z,87.18
2017-05-24T09:15:21.969Z,86.41
2017-05-24T09:16:34.518Z,86.41
2017-05-24T09:17:47.053Z,87.08
2017-05-24T09:18:59.599Z,85.94
2017-05-24T09:20:11.824Z,84.79
2017-05-24T09:21:24.374Z,84.98
2017-05-24T09:22:36.890Z,84.79
2017-05-24T09:23:49.445Z,84.5
2017-05-24T09:25:01.383Z,84.22
2017-05-24T09:26:13.329Z,84.31
2017-05-24T09:27:25.573Z,84.88
2017-05-24T09:28:37.495Z,84.41
2017-05-24T09:29:49.748Z,83.93
2017-05-24T09:31:02.291Z,83.64
2017-05-24T09:32:14.530Z,83.31
2017-05-24T09:33:26.753Z,83.89
2017-05-24T09:34:39.000Z,84.12
2017-05-24T09:35:51.568Z,84.69
2017-05-24T09:37:04.118Z,84.12
2017-05-24T09:38:16.659Z,84.22
2017-05-24T09:39:28.617Z,84.79
2017-05-24T09:40:40.311Z,84.69
2017-05-24T09:41:52.559Z,83.16
2017-05-24T09:43:05.103Z,83.49
2017-05-24T09:44:17.649Z,83.2
2017-05-24T09:45:30.171Z,81.96
2017-05-24T09:46:42.081Z,82.15
2017-05-24T09:47:54.603Z,82.06
2017-05-24T09:49:06.511Z,82.63
2017-05-24T09:50:18.754Z,82.24
2017-05-24T09:51:31.291Z,82.63
2017-05-24T09:52:43.542Z,82.63
2017-05-24T09:53:55.834Z,82.43
2017-05-24T09:55:08.080Z,82.43
2017-05-24T09:56:20.325Z,82.43
2017-05-24T09:57:32.851Z,81.96
2017-05-24T09:58:45.393Z,82.24
2017-05-24T09:59:57.646Z,82.34
2017-05-24T10:01:09.909Z,83.49
2017-05-24T10:02:22.451Z,82.24
2017-05-24T10:03:34.998Z,82.24
2017-05-24T10:04:46.972Z,82.06
2017-05-24T10:05:59.515Z,83.3
2017-05-24T10:07:11.465Z,83.59
2017-05-24T10:08:24.060Z,84.26
2017-05-24T10:09:36.356Z,84.12
2017-05-24T10:10:48.597Z,82.78
2017-05-24T10:12:00.829Z,82.2
2017-05-24T10:13:12.749Z,82.2
2017-05-24T10:14:25.287Z,82.4
2017-05-24T10:15:37.839Z,82.87
2017-05-24T10:16:50.081Z,83.16
2017-05-24T10:18:02.951Z,83.06
2017-05-24T10:19:14.945Z,82.87
2017-05-24T10:20:27.491Z,82.97
2017-05-24T10:21:40.015Z,83.45
2017-05-24T10:22:52.267Z,83.26
2017-05-24T10:24:04.189Z,82.24
2017-05-24T10:25:16.211Z,82.68
2017-05-24T10:26:28.448Z,83.16
2017-05-24T10:27:40.995Z,82.87
2017-05-24T10:28:53.526Z,82.78
2017-05-24T10:30:05.483Z,82.78
2017-05-24T10:31:17.704Z,82.59
2017-05-24T10:32:30.225Z,82.97
2017-05-24T10:33:42.125Z,83.16
2017-05-24T10:34:54.700Z,84.31
2017-05-24T10:36:06.941Z,83.45
2017-05-24T10:37:19.487Z,83.93
2017-05-24T10:38:32.042Z,83.54
2017-05-24T10:39:43.955Z,84.12
2017-05-24T10:40:56.223Z,84.31
2017-05-24T10:42:08.725Z,84.22
2017-05-24T10:43:20.947Z,83.59
2017-05-24T10:44:33.487Z,84.16
2017-05-24T10:45:45.733Z,84.06
2017-05-24T10:46:58.001Z,83.39
2017-05-24T10:48:10.230Z,84.26
2017-05-24T10:49:22.778Z,82.92
2017-05-24T10:50:35.050Z,82.57
2017-05-24T10:51:47.613Z,82.19
2017-05-24T10:53:00.213Z,82.76
2017-05-24T10:54:12.752Z,82.52
2017-05-24T10:55:25.305Z,81.66
2017-05-24T10:56:37.542Z,81.89
2017-05-24T10:57:49.465Z,80.93
2017-05-24T10:59:01.960Z,80.07
2017-05-24T11:00:14.489Z,80.16
2017-05-24T11:01:27.063Z,79.63
2017-05-24T11:02:39.608Z,79.24
2017-05-24T11:03:52.156Z,79.63
2017-05-24T11:05:04.097Z,79.14
2017-05-24T11:06:16.343Z,77.51
2017-05-24T11:07:28.896Z,77.51
2017-05-24T11:08:41.463Z,78.38
2017-05-24T11:09:54.048Z,77.13
2017-05-24T11:11:06.276Z,76.84
2017-05-24T11:12:18.539Z,76.71
2017-05-24T11:13:30.468Z,78.05
2017-05-24T11:14:43.018Z,78.05
2017-05-24T11:15:54.981Z,77.76
2017-05-24T11:17:07.210Z,77.95
2017-05-24T11:18:19.473Z,78.82
2017-05-24T11:19:31.740Z,79.01
2017-05-24T11:20:43.360Z,79.11
2017-05-24T11:21:55.590Z,79.11
2017-05-24T11:23:07.559Z,79.59
2017-05-24T11:24:20.110Z,78.82
2017-05-24T11:25:32.648Z,78.34
2017-05-24T11:26:44.276Z,77.8
2017-05-24T11:27:56.849Z,77.71
2017-05-24T11:29:09.118Z,77.8
2017-05-24T11:30:21.040Z,76.17
2017-05-24T11:31:33.577Z,76.84
2017-05-24T11:32:45.824Z,75.54
2017-05-24T11:33:58.399Z,76.5
2017-05-24T11:35:10.950Z,75.82
2017-05-24T11:36:23.471Z,74.58
2017-05-24T11:37:35.729Z,73.33
2017-05-24T11:38:48.303Z,73.91
2017-05-24T11:40:00.829Z,74.39
2017-05-24T11:41:12.467Z,74.1
2017-05-24T11:42:24.417Z,74.29
2017-05-24T11:43:36.984Z,75.15
2017-05-24T11:44:49.529Z,74.87
2017-05-24T11:46:01.475Z,73.91
2017-05-24T11:47:13.133Z,73.24
2017-05-24T11:48:25.679Z,74.04
2017-05-24T11:49:37.899Z,72.79
2017-05-24T11:50:50.459Z,71.73
2017-05-24T11:52:02.708Z,72.41
2017-05-24T11:53:14.338Z,71.93
2017-05-24T11:54:26.306Z,71.83
2017-05-24T11:55:38.847Z,70.49
2017-05-24T11:56:51.368Z,70.39
2017-05-24T11:58:03.922Z,70.29
2017-05-24T11:59:16.184Z,71.83
2017-05-24T12:00:28.737Z,71.06
2017-05-24T12:01:40.676Z,70.29
2017-05-24T12:02:53.277Z,69.72
2017-05-24T12:04:05.207Z,70.2
2017-05-24T12:05:17.435Z,71.45
2017-05-24T12:06:29.673Z,71.45
2017-05-24T12:07:42.239Z,70.81
2017-05-24T12:08:54.485Z,70.52
2017-05-24T12:10:06.719Z,70.04
2017-05-24T12:11:18.964Z,69.89
2017-05-24T12:12:31.190Z,69.12
2017-05-24T12:13:43.439Z,67.86
2017-05-24T12:14:55.107Z,67.29
2017-05-24T12:16:07.357Z,66.04
2017-05-24T12:17:19.893Z,66.71
2017-05-24T12:18:32.120Z,67.1
2017-05-24T12:19:44.673Z,66.91
2017-05-24T12:20:56.309Z,67.58
2017-05-24T12:22:08.807Z,68.06
2017-05-24T12:23:20.732Z,67.19
2017-05-24T12:24:33.277Z,66.91
2017-05-24T12:25:45.820Z,66.71
2017-05-24T12:26:58.070Z,66.91
2017-05-24T12:28:10.309Z,68.15
2017-05-24T12:29:22.232Z,67.29
2017-05-24T12:30:34.775Z,67.68
2017-05-24T12:31:46.995Z,67.77
2017-05-24T12:32:59.544Z,68.15
2017-05-24T12:34:11.788Z,66.91
2017-05-24T12:35:24.344Z,66.14
2017-05-24T12:36:36.890Z,65.94
2017-05-24T12:37:49.425Z,65.56
2017-05-24T12:39:01.921Z,65.46
2017-05-24T12:40:14.453Z,65.75
2017-05-24T12:41:26.975Z,66.2
2017-05-24T12:42:39.546Z,66.58
2017-05-24T12:43:52.160Z,67.83
2017-05-24T12:45:04.127Z,68.31
2017-05-24T12:46:16.050Z,68.41
2017-05-24T12:47:28.296Z,67.74
2017-05-24T12:48:40.546Z,68.12
2017-05-24T12:49:52.788Z,68.51
2017-05-24T12:51:05.035Z,67.25
2017-05-24T12:52:17.276Z,67.07
2017-05-24T12:53:29.525Z,66.68
2017-05-24T12:54:41.801Z,66.87
2017-05-24T12:55:53.749Z,65.91
2017-05-24T12:57:06.272Z,67.25
2017-05-24T12:58:18.234Z,67.93
2017-05-24T12:59:30.762Z,68.37
2017-05-24T13:00:43.552Z,68.47
2017-05-24T13:01:55.806Z,68.28
2017-05-24T13:03:08.366Z,67.9
2017-05-24T13:04:20.872Z,67.51
2017-05-24T13:05:33.418Z,68.57
2017-05-24T13:06:45.681Z,66.93
2017-05-24T13:07:57.956Z,67.22
2017-05-24T13:09:09.923Z,67.99
2017-05-24T13:10:22.498Z,67.13
2017-05-24T13:11:35.046Z,67.7
2017-05-24T13:12:47.593Z,68.28
2017-05-24T13:14:00.160Z,68.28
2017-05-24T13:15:12.707Z,68.76
2017-05-24T13:16:24.944Z,67.8
2017-05-24T13:17:37.473Z,68.37
2017-05-24T13:18:50.094Z,68.76
2017-05-24T13:20:02.036Z,67.13
2017-05-24T13:21:14.282Z,67.51
2017-05-24T13:22:26.524Z,64.82
2017-05-24T13:23:39.057Z,63.67
2017-05-24T13:24:51.641Z,63.67
2017-05-24T13:26:03.888Z,63.19
2017-05-24T13:27:15.836Z,63.48
2017-05-24T13:28:28.395Z,63.09
2017-05-24T13:29:40.949Z,62.81
2017-05-24T13:30:53.479Z,62.42
2017-05-24T13:32:05.499Z,63.19
2017-05-24T13:33:17.440Z,64.53
2017-05-24T13:34:29.691Z,64.53
2017-05-24T13:35:42.229Z,64.25
2017-05-24T13:36:54.775Z,63.6
2017-05-24T13:38:07.307Z,63.79
2017-05-24T13:39:19.550Z,62.84
2017-05-24T13:40:31.788Z,61.23
2017-05-24T13:41:44.018Z,61.91
2017-05-24T13:42:56.263Z,62
2017-05-24T13:44:07.630Z,59.79
2017-05-24T13:45:19.874Z,59.99
2017-05-24T13:46:32.114Z,60.37
2017-05-24T13:47:44.647Z,60.08
2017-05-24T13:48:57.189Z,60.27
2017-05-24T13:50:09.468Z,59.5
2017-05-24T13:51:21.730Z,59.12
2017-05-24T13:52:33.663Z,59.6
2017-05-24T13:53:46.243Z,60.27
2017-05-24T13:54:58.793Z,59.31
2017-05-24T13:56:10.735Z,57.48
2017-05-24T13:57:23.268Z,58.54
2017-05-24T13:58:35.806Z,59.41
2017-05-24T13:59:48.356Z,60.17
2017-05-24T14:01:00.606Z,60.66
2017-05-24T14:02:13.168Z,60.56
2017-05-24T14:03:25.118Z,60.56
2017-05-24T14:04:37.382Z,60.08
2017-05-24T14:05:49.914Z,60.27
2017-05-24T14:07:02.481Z,61.11
2017-05-24T14:08:15.007Z,61.58
2017-05-24T14:09:27.230Z,60.82
2017-05-24T14:10:39.790Z,61.11
2017-05-24T14:11:52.410Z,61.04
2017-05-24T14:13:04.656Z,60.24
2017-05-24T14:14:17.209Z,59.57
2017-05-24T14:15:29.176Z,60.05
2017-05-24T14:16:41.423Z,60.43
2017-05-24T14:17:53.969Z,60.46
2017-05-24T14:19:06.218Z,60.27
2017-05-24T14:20:18.465Z,59.5
2017-05-24T14:21:31.084Z,58.54
2017-05-24T14:22:43.602Z,58.73
2017-05-24T14:23:55.874Z,58.06
2017-05-24T14:25:07.823Z,58.35
2017-05-24T14:26:19.765Z,58.92
2017-05-24T14:27:32.337Z,59.31
2017-05-24T14:28:44.278Z,57.68
2017-05-24T14:29:56.532Z,58.15
2017-05-24T14:31:09.082Z,58.83
2017-05-24T14:32:21.048Z,59.41
2017-05-24T14:33:33.595Z,60.27
2017-05-24T14:34:46.129Z,58.7
2017-05-24T14:35:58.675Z,58.32
2017-05-24T14:37:11.207Z,59.19
2017-05-24T14:38:23.396Z,58.89
2017-05-24T14:39:35.027Z,59.76
2017-05-24T14:40:47.284Z,59.34
2017-05-24T14:41:59.808Z,59.44
2017-05-24T14:43:12.051Z,59.92
2017-05-24T14:44:24.301Z,60.88
2017-05-24T14:45:36.857Z,61.65
2017-05-24T14:46:49.389Z,62.96
2017-05-24T14:48:01.317Z,62.96
2017-05-24T14:49:13.866Z,61.52
2017-05-24T14:50:26.108Z,62.1
2017-05-24T14:51:38.076Z,61.62
2017-05-24T14:52:50.602Z,61.88
2017-05-24T14:54:02.851Z,62.74
2017-05-24T14:55:15.384Z,62.74
2017-05-24T14:56:27.918Z,62.93
2017-05-24T14:57:40.188Z,62.16
2017-05-24T14:58:52.480Z,62.93
2017-05-24T15:00:05.017Z,63.09
2017-05-24T15:01:16.615Z,63
2017-05-24T15:02:29.118Z,63.76
2017-05-24T15:03:40.764Z,64.72
2017-05-24T15:04:53.306Z,64.63
2017-05-24T15:06:05.858Z,64.92
2017-05-24T15:07:18.097Z,64.05
2017-05-24T15:08:30.347Z,64.72
2017-05-24T15:09:42.910Z,65.3
2017-05-24T15:10:55.160Z,65.65
2017-05-24T15:12:07.730Z,66.22
2017-05-24T15:13:19.672Z,67.66
2017-05-24T15:14:31.598Z,67.95
2017-05-24T15:15:44.227Z,67.38
2017-05-24T15:16:56.794Z,67.57
2017-05-24T15:18:09.033Z,67.76
2017-05-24T15:19:20.985Z,68.33
2017-05-24T15:20:32.924Z,68.33
2017-05-24T15:21:45.677Z,69.39
2017-05-24T15:22:57.919Z,69.29
2017-05-24T15:24:09.838Z,69.74
2017-05-24T15:25:22.086Z,69.83
2017-05-24T15:26:34.635Z,70.7
2017-05-24T15:27:46.878Z,71.66
2017-05-24T15:28:59.105Z,71.56
2017-05-24T15:30:11.353Z,71.56
2017-05-24T15:31:23.587Z,72.23
2017-05-24T15:32:35.818Z,72.99
2017-05-24T15:33:47.766Z,73.76